TNCC

Hato International Airport

Willemstad, Curaçao
TAF TNCC 171520Z 1718/1818 08010KT 9999 SCT020 TEMPO 1718/1818 BKN014 PROB30 TEMPO 1802/1812 VRB05G15KT 4000 SHRA/TSRA SCT010CB
Issued Valid From Valid To
Oct-17 @ 15:20 UTC
(5 hours ago)
Oct-17 @ 18:00 UTC
(2 hours ago)
Oct-18 @ 18:00 UTC
(in 22 hours)
Oct-17 @ 18:00 to Oct-18 @ 18:00
TAF TNCC 171520Z 1718/1818 08010KT 9999 SCT020
Wind Visibility Clouds
80° at 10 knots 10,000+ meters
  • Scattered at 2,000' AGL
Temporary Oct-17 @ 18:00 to Oct-18 @ 18:00
TEMPO 1718/1818 BKN014
Clouds
  • Broken at 1,400' AGL
Temporary  (Probability 30%) Oct-18 @ 02:00 to Oct-18 @ 12:00
PROB30 TEMPO 1802/1812 VRB05G15KT 4000 SHRA/TSRA SCT010CB
Wind Visibility Clouds Conditions
Variable at 5 knots
 Gusting to 15 knots
4,007 meters
  • Scattered at 1,000' AGL
  • Rain
  • Thunderstorm
  • Rain
TAF TNCC 171520Z 1718/1818 08010KT 9999 SCT020 TEMPO 1718/1818 BKN014 PROB30 TEMPO 1802/1812 VRB05G15KT 4000 SHRA/TSRA SCT010CB
Issued Oct-17 @ 15:20 UTC
(5 hours ago)
Valid From Oct-17 @ 18:00 UTC
(2 hours ago)
Valid To Oct-18 @ 18:00 UTC
(in 22 hours)
Oct-17 @ 18:00 - Oct-18 @ 18:00
Wind Visibility
80° at 10 knots 10,000+ meters
Clouds
  • Scattered at 2,000' AGL
Temporary Oct-17 @ 18:00 - Oct-18 @ 18:00
Clouds
  • Broken at 1,400' AGL
Probability 30% Temporary Oct-18 @ 02:00 - Oct-18 @ 12:00
Wind Visibility
Variable at 5 knots
 Gusting to 15 knots
4,007 meters
Clouds
  • Scattered at 1,000' AGL
Conditions
  • Rain
  • Thunderstorm
  • Rain